createdAt,value
2018-02-11T00:00:53.193Z,0.9
2018-02-11T00:01:55.616Z,0.9
2018-02-11T00:02:58.039Z,0.9
2018-02-11T00:04:00.757Z,0.8
2018-02-11T00:05:03.182Z,0.9
2018-02-11T00:06:05.598Z,0.8
2018-02-11T00:07:08.022Z,0.8
2018-02-11T00:08:10.727Z,0.9
2018-02-11T00:09:13.148Z,0.9
2018-02-11T00:10:15.847Z,0.8
2018-02-11T00:11:18.279Z,0.8
2018-02-11T00:12:20.694Z,0.8
2018-02-11T00:13:23.126Z,0.8
2018-02-11T00:14:25.549Z,0.8
2018-02-11T00:15:27.969Z,0.8
2018-02-11T00:16:30.678Z,0.8
2018-02-11T00:17:33.396Z,0.8
2018-02-11T00:18:35.815Z,0.8
2018-02-11T00:19:38.238Z,0.9
2018-02-11T00:20:40.664Z,0.9
2018-02-11T00:21:43.083Z,0.8
2018-02-11T00:22:45.499Z,0.8
2018-02-11T00:23:47.926Z,0.8
2018-02-11T00:24:50.349Z,0.8
2018-02-11T00:25:52.774Z,0.8
2018-02-11T00:26:55.191Z,0.9
2018-02-11T00:27:57.603Z,0.9
2018-02-11T00:29:00.038Z,0.8
2018-02-11T00:30:03.319Z,0.8
2018-02-11T00:31:05.746Z,0.9
2018-02-11T00:32:08.472Z,0.9
2018-02-11T00:33:10.900Z,0.9
2018-02-11T00:34:13.312Z,0.9
2018-02-11T00:35:15.736Z,0.9
2018-02-11T00:36:18.156Z,0.9
2018-02-11T00:37:20.588Z,0.9
2018-02-11T00:38:23.000Z,0.9
2018-02-11T00:39:25.413Z,0.9
2018-02-11T00:40:27.843Z,0.9
2018-02-11T00:41:30.267Z,0.9
2018-02-11T00:42:32.690Z,0.9
2018-02-11T00:43:35.402Z,0.9
2018-02-11T00:44:37.828Z,0.9
2018-02-11T00:45:40.250Z,0.9
2018-02-11T00:46:42.664Z,0.9
2018-02-11T00:47:45.082Z,0.9
2018-02-11T00:48:47.798Z,0.9
2018-02-11T00:49:50.217Z,0.9
2018-02-11T00:50:52.638Z,0.9
2018-02-11T00:51:55.062Z,0.9
2018-02-11T00:52:57.486Z,1
2018-02-11T00:53:59.917Z,1
2018-02-11T00:55:02.339Z,1
2018-02-11T00:56:04.764Z,0.9
2018-02-11T00:57:07.183Z,0.9
2018-02-11T00:58:09.604Z,0.9
2018-02-11T00:59:12.025Z,0.9
2018-02-11T01:00:14.449Z,0.9
2018-02-11T01:01:16.860Z,0.9
2018-02-11T01:02:19.283Z,0.9
2018-02-11T01:03:22.070Z,0.9
2018-02-11T01:04:24.481Z,1
2018-02-11T01:05:26.896Z,0.9
2018-02-11T01:06:29.312Z,1
2018-02-11T01:07:31.735Z,0.9
2018-02-11T01:08:34.164Z,0.9
2018-02-11T01:09:36.590Z,0.9
2018-02-11T01:10:39.003Z,1
2018-02-11T01:11:41.429Z,0.9
2018-02-11T01:12:43.864Z,1
2018-02-11T01:13:46.283Z,1
2018-02-11T01:14:48.704Z,1
2018-02-11T01:15:51.130Z,1
2018-02-11T01:16:53.548Z,1.1
2018-02-11T01:17:55.959Z,1.1
2018-02-11T01:18:58.385Z,1.1
2018-02-11T01:20:01.104Z,1.1
2018-02-11T01:21:03.818Z,1.1
2018-02-11T01:22:06.233Z,1.1
2018-02-11T01:23:08.657Z,1.1
2018-02-11T01:24:11.078Z,1.1
2018-02-11T01:25:13.516Z,1.1
2018-02-11T01:26:15.926Z,1.1
2018-02-11T01:27:18.341Z,1.2
2018-02-11T01:28:20.757Z,1.2
2018-02-11T01:29:23.179Z,1.2
2018-02-11T01:30:25.598Z,1.2
2018-02-11T01:31:28.019Z,1.2
2018-02-11T01:32:30.452Z,1.2
2018-02-11T01:33:32.862Z,1.2
2018-02-11T01:34:35.287Z,1.2
2018-02-11T01:35:37.714Z,1.2
2018-02-11T01:36:40.121Z,1.2
2018-02-11T01:37:42.557Z,1.2
2018-02-11T01:38:44.980Z,1.2
2018-02-11T01:39:47.400Z,1.2
2018-02-11T01:40:49.820Z,1.2
2018-02-11T01:41:52.241Z,1.2
2018-02-11T01:42:54.653Z,1.2
2018-02-11T01:43:57.085Z,1.2
2018-02-11T01:44:59.514Z,1.3
2018-02-11T01:46:01.927Z,1.2
2018-02-11T01:47:04.353Z,1.2
2018-02-11T01:48:06.781Z,1.2
2018-02-11T01:49:09.202Z,1.2
2018-02-11T01:50:11.623Z,1.2
2018-02-11T01:51:14.334Z,1.2
2018-02-11T01:52:16.738Z,1.2
2018-02-11T01:53:19.173Z,1.2
2018-02-11T01:54:21.591Z,1.2
2018-02-11T01:55:24.004Z,1.2
2018-02-11T01:56:26.429Z,1.1
2018-02-11T01:57:28.848Z,1.2
2018-02-11T01:58:31.283Z,1.1
2018-02-11T01:59:33.703Z,1.1
2018-02-11T02:00:36.394Z,1.2
2018-02-11T02:01:39.102Z,1.1
2018-02-11T02:02:41.522Z,1.1
2018-02-11T02:03:43.951Z,1.1
2018-02-11T02:04:46.369Z,1.1
2018-02-11T02:05:49.080Z,1.1
2018-02-11T02:06:51.491Z,1.2
2018-02-11T02:07:53.935Z,1.2
2018-02-11T02:08:56.348Z,1.1
2018-02-11T02:09:58.770Z,1.1
2018-02-11T02:11:01.181Z,1.1
2018-02-11T02:12:03.600Z,1.1
2018-02-11T02:13:06.016Z,1.1
2018-02-11T02:14:08.445Z,1.1
2018-02-11T02:15:11.159Z,1.1
2018-02-11T02:16:14.179Z,1.1
2018-02-11T02:17:16.592Z,1.1
2018-02-11T02:18:19.015Z,1.1
2018-02-11T02:19:21.455Z,1.1
2018-02-11T02:20:23.875Z,1
2018-02-11T02:21:26.299Z,1
2018-02-11T02:22:28.726Z,1
2018-02-11T02:23:31.144Z,1
2018-02-11T02:24:33.578Z,1
2018-02-11T02:25:36.004Z,0.9
2018-02-11T02:26:38.410Z,0.9
2018-02-11T02:27:40.839Z,0.9
2018-02-11T02:28:43.544Z,0.9
2018-02-11T02:29:45.962Z,0.9
2018-02-11T02:30:48.384Z,0.8
2018-02-11T02:31:50.789Z,0.8
2018-02-11T02:32:53.525Z,0.8
2018-02-11T02:33:55.963Z,0.8
2018-02-11T02:34:58.387Z,0.7
2018-02-11T02:36:00.814Z,0.7
2018-02-11T02:37:03.234Z,0.7
2018-02-11T02:38:05.655Z,0.7
2018-02-11T02:39:08.083Z,0.7
2018-02-11T02:40:10.500Z,0.7
2018-02-11T02:41:12.914Z,0.6
2018-02-11T02:42:15.341Z,0.6
2018-02-11T02:43:17.766Z,0.6
2018-02-11T02:44:20.188Z,0.6
2018-02-11T02:45:22.890Z,0.6
2018-02-11T02:46:25.313Z,0.6
2018-02-11T02:47:28.043Z,0.6
2018-02-11T02:48:30.458Z,0.6
2018-02-11T02:49:32.873Z,0.6
2018-02-11T02:50:35.593Z,0.5
2018-02-11T02:51:38.009Z,0.5
2018-02-11T02:52:40.423Z,0.5
2018-02-11T02:53:43.129Z,0.5
2018-02-11T02:54:45.555Z,0.6
2018-02-11T02:55:47.970Z,0.6
2018-02-11T02:56:50.683Z,0.6
2018-02-11T02:57:53.091Z,0.6
2018-02-11T02:58:55.836Z,0.6
2018-02-11T02:59:58.545Z,0.6
2018-02-11T03:01:01.263Z,0.6
2018-02-11T03:02:03.685Z,0.6
2018-02-11T03:03:06.098Z,0.6
2018-02-11T03:04:08.520Z,0.6
2018-02-11T03:05:10.957Z,0.6
2018-02-11T03:06:13.364Z,0.6
2018-02-11T03:07:15.781Z,0.6
2018-02-11T03:08:18.210Z,0.6
2018-02-11T03:09:20.622Z,0.6
2018-02-11T03:10:23.047Z,0.6
2018-02-11T03:11:25.750Z,0.6
2018-02-11T03:12:28.167Z,0.6
2018-02-11T03:13:30.602Z,0.6
2018-02-11T03:14:33.036Z,0.6
2018-02-11T03:15:35.445Z,0.6
2018-02-11T03:16:37.869Z,0.6
2018-02-11T03:17:40.286Z,0.6
2018-02-11T03:18:42.991Z,0.7
2018-02-11T03:19:45.414Z,0.6
2018-02-11T03:20:47.835Z,0.6
2018-02-11T03:21:50.252Z,0.6
2018-02-11T03:22:52.678Z,0.6
2018-02-11T03:23:55.104Z,0.6
2018-02-11T03:24:57.528Z,0.6
2018-02-11T03:25:59.942Z,0.6
2018-02-11T03:27:02.363Z,0.7
2018-02-11T03:28:04.785Z,0.7
2018-02-11T03:29:07.219Z,0.7
2018-02-11T03:30:09.644Z,0.7
2018-02-11T03:31:12.055Z,0.7
2018-02-11T03:32:14.476Z,0.7
2018-02-11T03:33:16.896Z,0.7
2018-02-11T03:34:19.317Z,0.7
2018-02-11T03:35:21.742Z,0.7
2018-02-11T03:36:24.159Z,0.7
2018-02-11T03:37:26.585Z,0.8
2018-02-11T03:38:29.008Z,0.8
2018-02-11T03:39:31.436Z,0.8
2018-02-11T03:40:33.851Z,0.8
2018-02-11T03:41:36.283Z,0.8
2018-02-11T03:42:38.708Z,0.8
2018-02-11T03:43:41.123Z,0.9
2018-02-11T03:44:43.542Z,0.9
2018-02-11T03:45:45.969Z,0.9
2018-02-11T03:46:48.382Z,0.9
2018-02-11T03:47:50.813Z,0.9
2018-02-11T03:48:53.232Z,0.9
2018-02-11T03:49:55.652Z,1
2018-02-11T03:50:58.077Z,0.9
2018-02-11T03:52:00.497Z,1
2018-02-11T03:53:02.914Z,0.9
2018-02-11T03:54:05.334Z,0.9
2018-02-11T03:55:07.748Z,0.9
2018-02-11T03:56:10.170Z,0.9
2018-02-11T03:57:12.883Z,0.9
2018-02-11T03:58:15.597Z,0.8
2018-02-11T03:59:18.026Z,0.8
2018-02-11T04:00:20.452Z,0.8
2018-02-11T04:01:22.870Z,0.8
2018-02-11T04:02:25.604Z,0.8
2018-02-11T04:03:28.015Z,0.8
2018-02-11T04:04:31.010Z,0.8
2018-02-11T04:05:33.716Z,0.8
2018-02-11T04:06:36.134Z,0.8
2018-02-11T04:07:38.557Z,0.8
2018-02-11T04:08:40.980Z,0.8
2018-02-11T04:09:43.395Z,0.8
2018-02-11T04:10:45.824Z,0.8
2018-02-11T04:11:48.242Z,0.7
2018-02-11T04:12:50.664Z,0.7
2018-02-11T04:13:53.069Z,0.7
2018-02-11T04:14:55.494Z,0.6
2018-02-11T04:15:57.926Z,0.6
2018-02-11T04:17:00.345Z,0.6
2018-02-11T04:18:02.768Z,0.6
2018-02-11T04:19:05.172Z,0.6
2018-02-11T04:20:07.595Z,0.6
2018-02-11T04:21:10.023Z,0.6
2018-02-11T04:22:12.727Z,0.6
2018-02-11T04:23:15.131Z,0.6
2018-02-11T04:24:17.556Z,0.6
2018-02-11T04:25:19.980Z,0.5
2018-02-11T04:26:22.404Z,0.5
2018-02-11T04:27:24.838Z,0.5
2018-02-11T04:28:27.248Z,0.4
2018-02-11T04:29:29.665Z,0.4
2018-02-11T04:30:32.093Z,0.4
2018-02-11T04:31:34.511Z,0.4
2018-02-11T04:32:36.924Z,0.3
2018-02-11T04:33:39.348Z,0.3
2018-02-11T04:34:41.763Z,0.3
2018-02-11T04:35:44.194Z,0.3
2018-02-11T04:36:46.615Z,0.3
2018-02-11T04:37:49.021Z,0.2
2018-02-11T04:38:51.447Z,0.3
2018-02-11T04:39:53.864Z,0.3
2018-02-11T04:40:56.287Z,0.3
2018-02-11T04:41:58.706Z,0.2
2018-02-11T04:43:01.125Z,0.2
2018-02-11T04:44:03.545Z,0.3
2018-02-11T04:45:05.963Z,0.2
2018-02-11T04:46:08.666Z,0.2
2018-02-11T04:47:11.102Z,0.2
2018-02-11T04:48:13.807Z,0.2
2018-02-11T04:49:16.220Z,0.2
2018-02-11T04:50:19.213Z,0.1
2018-02-11T04:51:21.633Z,0.1
2018-02-11T04:52:24.053Z,0.1
2018-02-11T04:53:26.470Z,0.1
2018-02-11T04:54:28.889Z,0.1
2018-02-11T04:55:31.315Z,0.1
2018-02-11T04:56:33.746Z,0.1
2018-02-11T04:57:36.152Z,0
2018-02-11T04:58:38.585Z,0
2018-02-11T04:59:41.000Z,0
2018-02-11T05:00:43.417Z,0
2018-02-11T05:01:45.849Z,0
2018-02-11T05:02:48.268Z,0
2018-02-11T05:03:50.684Z,0
2018-02-11T05:04:53.400Z,0
2018-02-11T05:05:55.813Z,0
2018-02-11T05:06:58.536Z,0
2018-02-11T05:08:00.959Z,0
2018-02-11T05:09:03.370Z,0
2018-02-11T05:10:05.793Z,0.1
2018-02-11T05:11:08.224Z,0
2018-02-11T05:12:10.638Z,0.1
2018-02-11T05:13:13.052Z,0.1
2018-02-11T05:14:15.472Z,0.1
2018-02-11T05:15:17.892Z,0.1
2018-02-11T05:16:20.320Z,0.1
2018-02-11T05:17:22.728Z,0.1
2018-02-11T05:18:25.148Z,0.1
2018-02-11T05:19:27.564Z,0.1
2018-02-11T05:20:29.976Z,0.1
2018-02-11T05:21:32.448Z,0.1
2018-02-11T05:22:34.816Z,0.1
2018-02-11T05:23:37.241Z,0.1
2018-02-11T05:24:39.664Z,0.1
2018-02-11T05:25:42.088Z,0.1
2018-02-11T05:26:44.788Z,0.1
2018-02-11T05:27:47.211Z,0.1
2018-02-11T05:28:49.906Z,0.1
2018-02-11T05:29:52.338Z,0.1
2018-02-11T05:30:54.759Z,0.1
2018-02-11T05:31:57.171Z,0.1
2018-02-11T05:32:59.594Z,0.1
2018-02-11T05:34:02.017Z,0.1
2018-02-11T05:35:04.438Z,0.1
2018-02-11T05:36:06.861Z,0.1
2018-02-11T05:37:09.265Z,0.2
2018-02-11T05:38:11.681Z,0.2
2018-02-11T05:39:14.103Z,0.2
2018-02-11T05:40:16.817Z,0.2
2018-02-11T05:41:19.231Z,0.2
2018-02-11T05:42:21.942Z,0.2
2018-02-11T05:43:24.355Z,0.2
2018-02-11T05:44:26.770Z,0.2
2018-02-11T05:45:29.191Z,0.2
2018-02-11T05:46:31.611Z,0.2
2018-02-11T05:47:34.032Z,0.2
2018-02-11T05:48:36.732Z,0.2
2018-02-11T05:49:39.433Z,0.2
2018-02-11T05:50:42.141Z,0.2
2018-02-11T05:51:44.560Z,0.2
2018-02-11T05:52:46.989Z,0.2
2018-02-11T05:53:49.403Z,0.2
2018-02-11T05:54:51.829Z,0.2
2018-02-11T05:55:54.542Z,0.2
2018-02-11T05:56:56.962Z,0.2
2018-02-11T05:57:59.675Z,0.2
2018-02-11T05:59:02.372Z,0.2
2018-02-11T06:00:04.796Z,0.2
2018-02-11T06:01:07.218Z,0.2
2018-02-11T06:02:09.632Z,0.2
2018-02-11T06:03:12.043Z,0.2
2018-02-11T06:04:14.464Z,0.1
2018-02-11T06:05:16.885Z,0.2
2018-02-11T06:06:19.580Z,0.1
2018-02-11T06:07:22.005Z,0.1
2018-02-11T06:08:24.426Z,0.1
2018-02-11T06:09:26.844Z,0.1
2018-02-11T06:10:29.281Z,0.1
2018-02-11T06:11:31.970Z,0.1
2018-02-11T06:12:34.392Z,0.1
2018-02-11T06:13:36.809Z,0.1
2018-02-11T06:14:39.528Z,0.1
2018-02-11T06:15:41.937Z,0
2018-02-11T06:16:44.639Z,0
2018-02-11T06:17:47.076Z,0
2018-02-11T06:18:49.492Z,0
2018-02-11T06:19:51.907Z,0
2018-02-11T06:20:54.333Z,0
2018-02-11T06:21:56.744Z,0
2018-02-11T06:22:59.167Z,0
2018-02-11T06:24:01.589Z,0
2018-02-11T06:25:04.868Z,0.1
2018-02-11T06:26:07.287Z,0.1
2018-02-11T06:27:09.995Z,0
2018-02-11T06:28:12.407Z,0.1
2018-02-11T06:29:15.127Z,0.1
2018-02-11T06:30:17.541Z,0.1
2018-02-11T06:31:19.950Z,0.1
2018-02-11T06:32:22.373Z,0.1
2018-02-11T06:33:24.788Z,0.1
2018-02-11T06:34:27.214Z,0.1
2018-02-11T06:35:29.930Z,0.1
2018-02-11T06:36:32.338Z,0.1
2018-02-11T06:37:34.776Z,0.1
2018-02-11T06:38:37.202Z,0.1
2018-02-11T06:39:39.623Z,0.1
2018-02-11T06:40:42.035Z,0.1
2018-02-11T06:41:44.775Z,0.1
2018-02-11T06:42:47.191Z,0.1
2018-02-11T06:43:49.598Z,0.1
2018-02-11T06:44:52.020Z,0.1
2018-02-11T06:45:54.727Z,0.2
2018-02-11T06:46:57.151Z,0.2
2018-02-11T06:47:59.571Z,0.2
2018-02-11T06:49:01.985Z,0.2
2018-02-11T06:50:04.710Z,0.2
2018-02-11T06:51:07.143Z,0.2
2018-02-11T06:52:09.559Z,0.2
2018-02-11T06:53:12.253Z,0.2
2018-02-11T06:54:14.672Z,0.2
2018-02-11T06:55:17.093Z,0.2
2018-02-11T06:56:19.515Z,0.2
2018-02-11T06:57:21.941Z,0.2
2018-02-11T06:58:24.349Z,0.2
2018-02-11T06:59:26.767Z,0.2
2018-02-11T07:00:29.187Z,0.2
2018-02-11T07:01:31.600Z,0.2
2018-02-11T07:02:34.014Z,0.2
2018-02-11T07:03:36.439Z,0.2
2018-02-11T07:04:39.444Z,0.2
2018-02-11T07:05:42.186Z,0.2
2018-02-11T07:06:44.566Z,0.2
2018-02-11T07:07:46.980Z,0.2
2018-02-11T07:08:49.407Z,0.2
2018-02-11T07:09:51.823Z,0.3
2018-02-11T07:10:54.248Z,0.2
2018-02-11T07:11:56.954Z,0.2
2018-02-11T07:12:59.369Z,0.2
2018-02-11T07:14:02.067Z,0.3
2018-02-11T07:15:04.489Z,0.3
2018-02-11T07:16:06.916Z,0.3
2018-02-11T07:17:09.349Z,0.3
2018-02-11T07:18:12.053Z,0.3
2018-02-11T07:19:14.760Z,0.3
2018-02-11T07:20:17.179Z,0.3
2018-02-11T07:21:19.604Z,0.3
2018-02-11T07:22:22.307Z,0.3
2018-02-11T07:23:24.723Z,0.3
2018-02-11T07:24:27.134Z,0.3
2018-02-11T07:25:29.558Z,0.3
2018-02-11T07:26:31.972Z,0.4
2018-02-11T07:27:34.396Z,0.4
2018-02-11T07:28:36.819Z,0.4
2018-02-11T07:29:39.230Z,0.4
2018-02-11T07:30:41.648Z,0.4
2018-02-11T07:31:44.074Z,0.4
2018-02-11T07:32:46.493Z,0.4
2018-02-11T07:33:48.926Z,0.5
2018-02-11T07:34:51.342Z,0.5
2018-02-11T07:35:53.756Z,0.5
2018-02-11T07:36:56.178Z,0.5
2018-02-11T07:37:58.883Z,0.5
2018-02-11T07:39:01.307Z,0.6
2018-02-11T07:40:04.031Z,0.6
2018-02-11T07:41:06.456Z,0.6
2018-02-11T07:42:08.872Z,0.6
2018-02-11T07:43:11.295Z,0.6
2018-02-11T07:44:13.723Z,0.6
2018-02-11T07:45:16.137Z,0.6
2018-02-11T07:46:18.874Z,0.6
2018-02-11T07:47:21.293Z,0.6
2018-02-11T07:48:23.710Z,0.6
2018-02-11T07:49:26.127Z,0.6
2018-02-11T07:50:28.827Z,0.6
2018-02-11T07:51:31.244Z,0.6
2018-02-11T07:52:33.667Z,0.7
2018-02-11T07:53:36.400Z,0.7
2018-02-11T07:54:39.102Z,0.6
2018-02-11T07:55:41.520Z,0.6
2018-02-11T07:56:43.936Z,0.6
2018-02-11T07:57:46.369Z,0.7
2018-02-11T07:58:48.790Z,0.7
2018-02-11T07:59:51.192Z,0.7
2018-02-11T08:00:53.616Z,0.7
2018-02-11T08:01:56.041Z,0.7
2018-02-11T08:02:58.469Z,0.7
2018-02-11T08:04:01.175Z,0.7
2018-02-11T08:05:03.865Z,0.7
2018-02-11T08:06:06.280Z,0.8
2018-02-11T08:07:08.712Z,0.7
2018-02-11T08:08:11.421Z,0.8
2018-02-11T08:09:14.118Z,0.8
2018-02-11T08:10:16.533Z,0.8
2018-02-11T08:11:18.952Z,0.8
2018-02-11T08:12:21.371Z,0.8
2018-02-11T08:13:23.792Z,0.8
2018-02-11T08:14:26.510Z,0.8
2018-02-11T08:15:28.938Z,0.8
2018-02-11T08:16:31.349Z,0.8
2018-02-11T08:17:33.778Z,0.8
2018-02-11T08:18:36.197Z,0.8
2018-02-11T08:19:38.608Z,0.8
2018-02-11T08:20:41.035Z,0.9
2018-02-11T08:21:43.440Z,0.9
2018-02-11T08:22:45.862Z,0.9
2018-02-11T08:23:48.579Z,0.9
2018-02-11T08:24:51.279Z,0.9
2018-02-11T08:25:53.712Z,0.9
2018-02-11T08:26:56.130Z,0.9
2018-02-11T08:27:58.554Z,0.9
2018-02-11T08:29:00.970Z,1
2018-02-11T08:30:03.401Z,0.9
2018-02-11T08:31:05.806Z,0.9
2018-02-11T08:32:08.247Z,1
2018-02-11T08:33:10.654Z,1
2018-02-11T08:34:13.077Z,1
2018-02-11T08:35:15.503Z,1
2018-02-11T08:36:18.229Z,1
2018-02-11T08:37:20.652Z,1
2018-02-11T08:38:23.077Z,1
2018-02-11T08:39:25.504Z,1
2018-02-11T08:40:28.202Z,1
2018-02-11T08:41:30.630Z,1
2018-02-11T08:42:33.336Z,1
2018-02-11T08:43:36.034Z,1
2018-02-11T08:44:38.455Z,1
2018-02-11T08:45:40.877Z,1
2018-02-11T08:46:43.577Z,0.9
2018-02-11T08:47:46.013Z,0.9
2018-02-11T08:48:48.709Z,0.9
2018-02-11T08:49:51.129Z,0.9
2018-02-11T08:50:53.558Z,0.9
2018-02-11T08:51:55.974Z,0.9
2018-02-11T08:52:58.396Z,0.9
2018-02-11T08:54:01.115Z,0.8
2018-02-11T08:55:03.817Z,0.8
2018-02-11T08:56:06.239Z,0.8
2018-02-11T08:57:08.961Z,0.8
2018-02-11T08:58:11.371Z,0.8
2018-02-11T08:59:13.795Z,0.8
2018-02-11T09:00:16.490Z,0.8
2018-02-11T09:01:18.914Z,0.8
2018-02-11T09:02:21.334Z,0.8
2018-02-11T09:03:24.045Z,0.8
2018-02-11T09:04:26.453Z,0.8
2018-02-11T09:05:28.885Z,0.8
2018-02-11T09:06:31.310Z,0.8
2018-02-11T09:07:33.737Z,0.8
2018-02-11T09:08:36.150Z,0.8
2018-02-11T09:09:38.575Z,0.8
2018-02-11T09:10:41.000Z,0.7
2018-02-11T09:11:43.408Z,0.7
2018-02-11T09:12:45.832Z,0.7
2018-02-11T09:13:48.552Z,0.7
2018-02-11T09:14:50.969Z,0.7
2018-02-11T09:15:53.384Z,0.7
2018-02-11T09:16:56.095Z,0.7
2018-02-11T09:17:58.512Z,0.7
2018-02-11T09:19:00.943Z,0.7
2018-02-11T09:20:03.369Z,0.7
2018-02-11T09:21:05.779Z,0.6
2018-02-11T09:22:08.202Z,0.7
2018-02-11T09:23:10.631Z,0.7
2018-02-11T09:24:13.097Z,0.7
2018-02-11T09:25:15.470Z,0.6
2018-02-11T09:26:17.900Z,0.6
2018-02-11T09:27:20.320Z,0.6
2018-02-11T09:28:22.733Z,0.6
2018-02-11T09:29:25.151Z,0.6
2018-02-11T09:30:27.569Z,0.6
2018-02-11T09:31:29.999Z,0.6
2018-02-11T09:32:32.406Z,0.6
2018-02-11T09:33:34.862Z,0.6
2018-02-11T09:34:37.256Z,0.6
2018-02-11T09:35:39.676Z,0.6
2018-02-11T09:36:42.104Z,0.6
2018-02-11T09:37:44.516Z,0.6
2018-02-11T09:38:46.937Z,0.6
2018-02-11T09:39:49.360Z,0.6
2018-02-11T09:40:52.064Z,0.6
2018-02-11T09:41:54.482Z,0.6
2018-02-11T09:42:56.892Z,0.6
2018-02-11T09:43:59.322Z,0.6
2018-02-11T09:45:01.796Z,0.6
2018-02-11T09:46:04.168Z,0.6
2018-02-11T09:47:06.595Z,0.6
2018-02-11T09:48:09.011Z,0.7
2018-02-11T09:49:11.444Z,0.7
2018-02-11T09:50:13.862Z,0.7
2018-02-11T09:51:16.280Z,0.7
2018-02-11T09:52:18.695Z,0.6
2018-02-11T09:53:21.402Z,0.6
2018-02-11T09:54:23.814Z,0.6
2018-02-11T09:55:26.235Z,0.7
2018-02-11T09:56:28.646Z,0.7
2018-02-11T09:57:31.063Z,0.7
2018-02-11T09:58:33.488Z,0.8
2018-02-11T09:59:35.903Z,0.7
2018-02-11T10:00:38.323Z,0.7
2018-02-11T10:01:40.743Z,0.8
2018-02-11T10:02:43.469Z,0.7
2018-02-11T10:03:45.904Z,0.7
2018-02-11T10:04:48.366Z,0.8
2018-02-11T10:05:50.741Z,0.8
2018-02-11T10:06:53.157Z,0.8
2018-02-11T10:07:55.868Z,0.8
2018-02-11T10:08:58.288Z,0.8
2018-02-11T10:10:00.710Z,0.8
2018-02-11T10:11:03.137Z,0.8
2018-02-11T10:12:05.566Z,0.8
2018-02-11T10:13:07.969Z,0.8
2018-02-11T10:14:10.676Z,0.8
2018-02-11T10:15:13.104Z,0.8
2018-02-11T10:16:15.822Z,0.8
2018-02-11T10:17:18.236Z,0.9
2018-02-11T10:18:20.669Z,0.8
2018-02-11T10:19:23.064Z,0.9
2018-02-11T10:20:25.497Z,0.9
2018-02-11T10:21:27.915Z,0.9
2018-02-11T10:22:30.322Z,0.9
2018-02-11T10:23:33.032Z,0.9
2018-02-11T10:24:35.741Z,0.9
2018-02-11T10:25:38.167Z,0.9
2018-02-11T10:26:40.587Z,0.9
2018-02-11T10:27:43.281Z,0.9
2018-02-11T10:28:45.703Z,0.9
2018-02-11T10:29:48.128Z,0.9
2018-02-11T10:30:50.545Z,0.9
2018-02-11T10:31:52.966Z,0.9
2018-02-11T10:32:55.389Z,0.9
2018-02-11T10:33:57.835Z,0.9
2018-02-11T10:35:00.540Z,0.9
2018-02-11T10:36:02.960Z,0.9
2018-02-11T10:37:05.645Z,0.9
2018-02-11T10:38:08.066Z,0.9
2018-02-11T10:39:10.487Z,0.9
2018-02-11T10:40:12.909Z,0.9
2018-02-11T10:41:15.327Z,0.9
2018-02-11T10:42:17.749Z,0.9
2018-02-11T10:43:20.174Z,0.9
2018-02-11T10:44:22.582Z,1
2018-02-11T10:45:25.014Z,1
2018-02-11T10:46:27.423Z,0.9
2018-02-11T10:47:29.842Z,1
2018-02-11T10:48:32.263Z,1
2018-02-11T10:49:34.680Z,1
2018-02-11T10:50:37.097Z,1
2018-02-11T10:51:39.526Z,1
2018-02-11T10:52:41.943Z,1
2018-02-11T10:53:44.371Z,1
2018-02-11T10:54:46.787Z,1
2018-02-11T10:55:49.199Z,1
2018-02-11T10:56:51.624Z,1
2018-02-11T10:57:54.043Z,1
2018-02-11T10:58:56.456Z,1
2018-02-11T10:59:58.889Z,1
2018-02-11T11:01:01.294Z,1
2018-02-11T11:02:04.290Z,1
2018-02-11T11:03:06.709Z,1
2018-02-11T11:04:09.125Z,1
2018-02-11T11:05:11.549Z,1
2018-02-11T11:06:14.265Z,1
2018-02-11T11:07:16.667Z,1
2018-02-11T11:08:19.090Z,1
2018-02-11T11:09:21.508Z,1
2018-02-11T11:10:23.947Z,0.9
2018-02-11T11:11:26.365Z,0.9
2018-02-11T11:12:28.783Z,0.9
2018-02-11T11:13:31.212Z,0.9
2018-02-11T11:14:33.626Z,0.9
2018-02-11T11:15:36.043Z,0.9
2018-02-11T11:16:38.753Z,0.9
2018-02-11T11:17:41.167Z,0.9
2018-02-11T11:18:43.594Z,0.9
2018-02-11T11:19:46.304Z,0.9
2018-02-11T11:20:48.724Z,0.9
2018-02-11T11:21:51.143Z,0.9
2018-02-11T11:22:53.554Z,0.9
2018-02-11T11:23:55.970Z,0.9
2018-02-11T11:24:58.401Z,0.9
2018-02-11T11:26:00.829Z,0.9
2018-02-11T11:27:03.241Z,0.9
2018-02-11T11:28:05.667Z,0.9
2018-02-11T11:29:08.086Z,0.9
2018-02-11T11:30:10.500Z,0.9
2018-02-11T11:31:12.930Z,0.9
2018-02-11T11:32:15.335Z,0.9
2018-02-11T11:33:17.756Z,0.9
2018-02-11T11:34:20.194Z,0.9
2018-02-11T11:35:22.611Z,0.9
2018-02-11T11:36:25.316Z,0.9
2018-02-11T11:37:27.742Z,0.9
2018-02-11T11:38:30.161Z,0.9
2018-02-11T11:39:32.588Z,0.9
2018-02-11T11:40:35.011Z,0.9
2018-02-11T11:41:37.425Z,0.9
2018-02-11T11:42:39.840Z,0.9
2018-02-11T11:43:42.272Z,0.9
2018-02-11T11:44:44.680Z,0.9
2018-02-11T11:45:47.107Z,0.9
2018-02-11T11:46:49.834Z,0.9
2018-02-11T11:47:52.253Z,0.9
2018-02-11T11:48:54.671Z,0.9
2018-02-11T11:49:57.096Z,0.9
2018-02-11T11:50:59.525Z,1
2018-02-11T11:52:01.945Z,1
2018-02-11T11:53:04.369Z,1
2018-02-11T11:54:06.794Z,0.9
2018-02-11T11:55:09.211Z,1
2018-02-11T11:56:11.922Z,1
2018-02-11T11:57:14.345Z,1
2018-02-11T11:58:16.780Z,1
2018-02-11T11:59:19.186Z,1
2018-02-11T12:00:21.604Z,1
2018-02-11T12:01:24.022Z,1
2018-02-11T12:02:26.438Z,1
2018-02-11T12:03:28.882Z,1
2018-02-11T12:04:31.285Z,1
2018-02-11T12:05:33.711Z,1
2018-02-11T12:06:36.420Z,1
2018-02-11T12:07:39.130Z,1
2018-02-11T12:08:41.559Z,1.1
2018-02-11T12:09:43.965Z,1
2018-02-11T12:10:46.392Z,1.1
2018-02-11T12:11:48.812Z,1.1
2018-02-11T12:12:51.235Z,1.1
2018-02-11T12:13:53.659Z,1.1
2018-02-11T12:14:56.085Z,1.1
2018-02-11T12:15:58.509Z,1.1
2018-02-11T12:17:00.943Z,1.1
2018-02-11T12:18:03.358Z,1.2
2018-02-11T12:19:05.771Z,1.1
2018-02-11T12:20:08.195Z,1.1
2018-02-11T12:21:10.618Z,1.1
2018-02-11T12:22:13.037Z,1.1
2018-02-11T12:23:15.472Z,1.2
2018-02-11T12:24:17.875Z,1.2
2018-02-11T12:25:20.303Z,1.2
2018-02-11T12:26:22.724Z,1.2
2018-02-11T12:27:25.144Z,1.2
2018-02-11T12:28:27.562Z,1.2
2018-02-11T12:29:29.975Z,1.2
2018-02-11T12:30:32.392Z,1.3
2018-02-11T12:31:34.829Z,1.2
2018-02-11T12:32:37.252Z,1.3
2018-02-11T12:33:39.668Z,1.3
2018-02-11T12:34:42.097Z,1.3
2018-02-11T12:35:44.524Z,1.3
2018-02-11T12:36:46.941Z,1.3
2018-02-11T12:37:49.354Z,1.4
2018-02-11T12:38:51.774Z,1.4
2018-02-11T12:39:54.195Z,1.4
2018-02-11T12:40:56.896Z,1.4
2018-02-11T12:41:59.324Z,1.4
2018-02-11T12:43:01.748Z,1.4
2018-02-11T12:44:04.168Z,1.3
2018-02-11T12:45:06.598Z,1.3
2018-02-11T12:46:09.025Z,1.3
2018-02-11T12:47:11.441Z,1.3
2018-02-11T12:48:13.862Z,1.3
2018-02-11T12:49:16.276Z,1.4
2018-02-11T12:50:18.687Z,1.4
2018-02-11T12:51:21.107Z,1.4
2018-02-11T12:52:23.534Z,1.4
2018-02-11T12:53:25.955Z,1.4
2018-02-11T12:54:28.667Z,1.4
2018-02-11T12:55:31.083Z,1.4
2018-02-11T12:56:33.512Z,1.4
2018-02-11T12:57:35.937Z,1.4
2018-02-11T12:58:38.352Z,1.4
2018-02-11T12:59:40.782Z,1.4
2018-02-11T13:00:43.209Z,1.4
2018-02-11T13:01:45.620Z,1.5
2018-02-11T13:02:48.050Z,1.5
2018-02-11T13:03:50.468Z,1.5
2018-02-11T13:04:52.895Z,1.4
2018-02-11T13:05:55.307Z,1.5
2018-02-11T13:06:57.743Z,1.5
2018-02-11T13:08:00.194Z,1.5
2018-02-11T13:09:02.579Z,1.5
2018-02-11T13:10:05.002Z,1.5
2018-02-11T13:11:07.428Z,1.5
2018-02-11T13:12:09.852Z,1.5
2018-02-11T13:13:12.278Z,1.5
2018-02-11T13:14:14.687Z,1.5
2018-02-11T13:15:17.112Z,1.5
2018-02-11T13:16:19.548Z,1.5
2018-02-11T13:17:22.532Z,1.5
2018-02-11T13:18:24.952Z,1.5
2018-02-11T13:19:27.370Z,1.5
2018-02-11T13:20:29.796Z,1.5
2018-02-11T13:21:32.521Z,1.5
2018-02-11T13:22:34.939Z,1.6
2018-02-11T13:23:37.652Z,1.6
2018-02-11T13:24:40.073Z,1.6
2018-02-11T13:25:42.490Z,1.6
2018-02-11T13:26:44.920Z,1.6
2018-02-11T13:27:47.337Z,1.6
2018-02-11T13:28:49.758Z,1.6
2018-02-11T13:29:52.186Z,1.6
2018-02-11T13:30:54.902Z,1.6
2018-02-11T13:31:57.318Z,1.6
2018-02-11T13:32:59.738Z,1.6
2018-02-11T13:34:02.158Z,1.6
2018-02-11T13:35:04.586Z,1.6
2018-02-11T13:36:07.006Z,1.6
2018-02-11T13:37:09.422Z,1.6
2018-02-11T13:38:12.136Z,1.7
2018-02-11T13:39:14.567Z,1.7
2018-02-11T13:40:16.982Z,1.7
2018-02-11T13:41:19.412Z,1.7
2018-02-11T13:42:21.840Z,1.7
2018-02-11T13:43:24.258Z,1.7
2018-02-11T13:44:26.687Z,1.7
2018-02-11T13:45:29.399Z,1.7
2018-02-11T13:46:31.821Z,1.7
2018-02-11T13:47:34.599Z,1.7
2018-02-11T13:48:36.963Z,1.8
2018-02-11T13:49:39.383Z,1.8
2018-02-11T13:50:41.807Z,1.8
2018-02-11T13:51:44.222Z,1.8
2018-02-11T13:52:46.649Z,1.8
2018-02-11T13:53:49.068Z,1.8
2018-02-11T13:54:51.499Z,1.8
2018-02-11T13:55:54.206Z,1.8
2018-02-11T13:56:56.636Z,1.8
2018-02-11T13:57:59.346Z,1.8
2018-02-11T13:59:01.780Z,1.8
2018-02-11T14:00:04.197Z,1.8
2018-02-11T14:01:06.615Z,1.9
2018-02-11T14:02:09.035Z,1.9
2018-02-11T14:03:11.750Z,1.9
2018-02-11T14:04:14.170Z,1.9
2018-02-11T14:05:16.589Z,1.9
2018-02-11T14:06:19.055Z,1.9
2018-02-11T14:07:21.446Z,1.9
2018-02-11T14:08:23.859Z,1.9
2018-02-11T14:09:26.576Z,1.9
2018-02-11T14:10:29.011Z,1.9
2018-02-11T14:11:31.438Z,1.9
2018-02-11T14:12:33.875Z,1.9
2018-02-11T14:13:36.301Z,1.9
2018-02-11T14:14:38.736Z,1.9
2018-02-11T14:15:41.168Z,2
2018-02-11T14:16:43.611Z,2
2018-02-11T14:17:46.035Z,2
2018-02-11T14:18:48.479Z,2
2018-02-11T14:19:50.902Z,2
2018-02-11T14:20:53.341Z,2
2018-02-11T14:21:55.772Z,2
2018-02-11T14:22:58.184Z,2
2018-02-11T14:24:00.619Z,2.1
2018-02-11T14:25:03.328Z,2.1
2018-02-11T14:26:05.757Z,2.1
2018-02-11T14:27:08.460Z,2.1
2018-02-11T14:28:10.881Z,2